Time;durP1;ratioP1;P1;durP2;ratioP2;P2;SDS_P1;SDS_P2;PMS_P1;PMS_P2;Temp;Humidity;BMP_temperature;BMP_pressure;BME280_temperature;BME280_humidity;BME280_pressure;Samples;Min_cycle;Max_cycle;Signal;HPM_P1;HPM_P2
2022/08/07 00:00:00;;;;;;;1.85;1.25;;;;;;;13.89;53.99;102010.34;7397841;19;20003;-71
2022/08/07 00:02:28;;;;;;;1.55;1.00;;;;;;;13.85;54.31;102017.47;7400196;19;20038;-70
2022/08/07 00:04:57;;;;;;;1.33;1.08;;;;;;;13.79;54.67;102023.69;7399997;19;20481;-71
2022/08/07 00:07:25;;;;;;;3.03;1.35;;;;;;;13.74;54.78;102012.34;7397207;19;20031;-71
2022/08/07 00:09:54;;;;;;;1.92;1.00;;;;;;;13.68;54.74;102012.44;7399639;19;20011;-71
2022/08/07 00:12:22;;;;;;;1.67;1.00;;;;;;;13.65;55.06;102013.34;7397527;19;20022;-70
2022/08/07 00:14:51;;;;;;;2.28;0.80;;;;;;;13.61;55.06;102011.66;7399401;19;20035;-71
2022/08/07 00:17:22;;;;;;;2.50;0.90;;;;;;;13.59;55.38;102012.56;7398863;19;20031;-71
2022/08/07 00:19:51;;;;;;;5.18;1.02;;;;;;;13.54;55.55;102015.25;7399662;19;20411;-71
2022/08/07 00:22:26;;;;;;;1.00;0.70;;;;;;;13.50;55.58;102010.94;7399222;19;20032;-71
2022/08/07 00:24:54;;;;;;;1.90;0.95;;;;;;;13.47;55.53;102013.59;7396741;19;20422;-71
2022/08/07 00:27:23;;;;;;;1.17;0.80;;;;;;;13.43;55.64;102002.22;7396721;19;20517;-70
2022/08/07 00:29:52;;;;;;;1.80;0.98;;;;;;;13.37;55.79;101997.06;7397150;19;20077;-71
2022/08/07 00:32:23;;;;;;;2.40;1.48;;;;;;;13.36;56.02;101997.91;7396403;19;20018;-71
2022/08/07 00:34:52;;;;;;;5.45;1.05;;;;;;;13.34;56.20;101999.69;7397597;19;20035;-71
2022/08/07 00:37:21;;;;;;;1.98;1.08;;;;;;;13.31;56.27;101997.09;7397374;19;20018;-71
2022/08/07 00:39:52;;;;;;;3.20;1.10;;;;;;;13.27;56.55;101996.25;7398395;19;20082;-71
2022/08/07 00:42:22;;;;;;;2.45;1.05;;;;;;;13.25;56.64;101991.91;7398699;19;20035;-70
2022/08/07 00:44:50;;;;;;;2.28;1.35;;;;;;;13.20;56.69;101991.94;7398265;19;20007;-70
2022/08/07 00:47:19;;;;;;;8.07;1.60;;;;;;;13.20;56.94;101995.47;7395880;19;20018;-70
2022/08/07 00:49:50;;;;;;;3.83;1.70;;;;;;;13.18;57.05;101999.88;7397851;19;20089;-71
2022/08/07 00:52:18;;;;;;;2.47;1.70;;;;;;;13.17;57.21;101992.88;7396599;19;20031;-70
2022/08/07 00:54:47;;;;;;;2.15;1.80;;;;;;;13.16;57.43;102001.66;7398212;19;20446;-71
2022/08/07 00:57:16;;;;;;;3.90;2.65;;;;;;;13.13;57.64;101992.91;7395249;19;20014;-71
2022/08/07 00:59:45;;;;;;;5.90;2.50;;;;;;;13.12;58.08;102001.72;7397275;19;20502;-71
2022/08/07 01:02:13;;;;;;;6.70;2.75;;;;;;;13.10;58.32;101992.97;7395571;19;20039;-71
2022/08/07 01:04:42;;;;;;;3.85;2.50;;;;;;;13.05;58.52;101990.38;7395485;19;20023;-71
2022/08/07 01:07:14;;;;;;;5.20;2.70;;;;;;;13.07;58.92;101999.16;7396862;19;20409;-68
2022/08/07 01:09:43;;;;;;;3.53;2.30;;;;;;;13.09;59.00;102001.75;7397243;19;20015;-69
2022/08/07 01:12:12;;;;;;;2.90;2.17;;;;;;;13.11;58.91;101998.22;7395796;19;20036;-69
2022/08/07 01:14:40;;;;;;;2.10;1.73;;;;;;;13.12;58.89;102002.59;7399400;19;20022;-67
2022/08/07 01:17:09;;;;;;;3.25;1.40;;;;;;;13.12;58.77;101999.97;7397778;19;20074;-68
2022/08/07 01:19:39;;;;;;;3.10;1.52;;;;;;;13.12;58.81;102004.38;7397551;19;20020;-68
2022/08/07 01:22:10;;;;;;;5.20;1.90;;;;;;;13.10;58.61;102006.13;7397048;19;20022;-68
2022/08/07 01:24:39;;;;;;;3.40;1.70;;;;;;;13.07;58.41;102003.53;7396675;19;20454;-68
2022/08/07 01:27:08;;;;;;;3.00;1.65;;;;;;;13.02;58.25;102006.22;7395636;19;20039;-68
2022/08/07 01:29:36;;;;;;;1.77;1.20;;;;;;;12.96;58.24;102006.31;7395260;19;20018;-68
2022/08/07 01:32:05;;;;;;;2.92;1.60;;;;;;;12.90;58.31;102007.22;7396563;19;20025;-68
2022/08/07 01:34:35;;;;;;;2.60;1.35;;;;;;;12.83;58.32;102003.78;7396498;19;20010;-67
2022/08/07 01:37:03;;;;;;;2.20;1.20;;;;;;;12.76;58.54;102004.75;7395696;19;20022;-67
2022/08/07 01:39:35;;;;;;;1.75;1.30;;;;;;;12.69;58.57;102003.94;7396410;19;20022;-68
2022/08/07 01:42:03;;;;;;;2.72;1.15;;;;;;;12.61;58.56;102005.81;7396327;19;20370;-67
2022/08/07 01:44:32;;;;;;;2.08;1.77;;;;;;;12.56;58.49;102002.31;7395971;19;20094;-68
2022/08/07 01:47:01;;;;;;;2.47;1.40;;;;;;;12.51;58.71;102002.38;7391063;19;20026;-67
2022/08/07 01:49:30;;;;;;;4.00;1.05;;;;;;;12.44;58.68;102000.69;7395692;19;20398;-68
2022/08/07 01:52:00;;;;;;;4.68;1.10;;;;;;;12.37;58.89;102004.25;7395779;19;20436;-67
2022/08/07 01:54:31;;;;;;;2.78;1.27;;;;;;;12.34;58.93;102001.66;7394653;19;20074;-67
2022/08/07 01:57:06;;;;;;;2.80;1.40;;;;;;;12.29;59.14;102000.84;7395972;19;20014;-67
2022/08/07 01:59:42;;;;;;;2.70;1.30;;;;;;;12.22;59.32;102002.66;7396242;19;20018;-66
2022/08/07 02:02:17;;;;;;;1.67;1.25;;;;;;;12.18;59.55;101998.28;7396263;19;20082;-68
2022/08/07 02:04:53;;;;;;;1.90;1.63;;;;;;;12.16;59.56;101998.31;7394620;19;20019;-67
2022/08/07 02:07:24;;;;;;;1.40;1.30;;;;;;;12.15;59.49;102001.81;7394357;19;20014;-69
2022/08/07 02:09:55;;;;;;;1.90;1.10;;;;;;;12.17;59.87;102000.06;7395202;19;20024;-67
2022/08/07 02:12:36;;;;;;;6.40;1.80;;;;;;;12.16;60.02;102000.06;7394995;19;20484;-68
2022/08/07 02:15:07;;;;;;;1.73;1.13;;;;;;;12.14;59.98;102001.84;7395754;19;20173;-68
2022/08/07 02:17:36;;;;;;;1.52;1.30;;;;;;;12.12;59.91;101996.59;7394134;19;20032;-68
2022/08/07 02:20:07;;;;;;;1.42;1.13;;;;;;;12.09;60.02;101993.97;7395159;19;20021;-68
2022/08/07 02:22:39;;;;;;;4.63;1.30;;;;;;;12.08;60.08;101994.88;7393679;19;20018;-67
2022/08/07 02:25:09;;;;;;;2.53;1.27;;;;;;;12.05;60.22;101989.63;7394741;19;20027;-68
2022/08/07 02:27:42;;;;;;;1.48;1.38;;;;;;;12.03;60.64;101994.91;7393500;19;20039;-68
2022/08/07 02:30:12;;;;;;;1.60;1.45;;;;;;;11.99;60.67;101984.41;7394028;19;20019;-70
2022/08/07 02:32:41;;;;;;;5.05;1.50;;;;;;;12.01;60.80;101982.66;7394491;19;20379;-69
2022/08/07 02:35:11;;;;;;;2.90;1.52;;;;;;;12.00;60.87;101989.66;7394768;19;20375;-69
2022/08/07 02:37:43;;;;;;;3.45;1.52;;;;;;;11.99;61.01;101987.94;7394550;19;20505;-71
2022/08/07 02:40:12;;;;;;;3.08;1.55;;;;;;;11.97;61.19;101989.69;7395239;19;20418;-69
2022/08/07 02:42:45;;;;;;;3.17;1.50;;;;;;;11.96;61.29;101989.72;7392672;19;20085;-69
2022/08/07 02:45:16;;;;;;;2.58;1.30;;;;;;;11.90;61.52;101980.94;7395199;19;20418;-69
2022/08/07 02:47:44;;;;;;;1.95;1.70;;;;;;;11.88;61.57;101987.97;7394239;19;20424;-69
2022/08/07 02:50:13;;;;;;;2.25;1.42;;;;;;;11.86;61.63;101986.22;7394743;19;20082;-69
2022/08/07 02:52:44;;;;;;;2.13;1.35;;;;;;;11.82;61.73;101993.25;7394145;19;20031;-69
2022/08/07 02:55:22;;;;;;;1.65;1.40;;;;;;;11.79;61.95;101992.41;7394984;19;20360;-69
2022/08/07 02:57:57;;;;;;;2.42;1.90;;;;;;;11.76;62.04;102000.34;7393477;19;20362;-69
2022/08/07 03:00:28;;;;;;;2.67;1.55;;;;;;;11.72;62.12;101999.47;7399807;19;20026;-69
2022/08/07 03:02:57;;;;;;;3.45;1.88;;;;;;;11.68;62.28;102000.38;7398838;19;20031;-69
2022/08/07 03:05:26;;;;;;;3.33;1.90;;;;;;;11.64;62.28;101996.00;7401591;19;20545;-69
2022/08/07 03:07:57;;;;;;;3.05;1.92;;;;;;;11.62;62.46;101995.16;7399765;19;20473;-69
2022/08/07 03:10:26;;;;;;;3.22;1.77;;;;;;;11.60;62.46;102000.44;7402295;19;20014;-69
2022/08/07 03:12:58;;;;;;;4.60;1.98;;;;;;;11.58;62.56;102004.81;7401887;19;20018;-69
2022/08/07 03:15:27;;;;;;;2.70;2.00;;;;;;;11.56;62.77;102006.56;7401737;19;20015;-69
2022/08/07 03:17:56;;;;;;;2.40;1.70;;;;;;;11.51;62.97;101998.72;7399968;19;20434;-68
2022/08/07 03:20:25;;;;;;;2.47;2.00;;;;;;;11.49;63.10;101994.38;7401433;19;20027;-69
2022/08/07 03:22:55;;;;;;;4.18;2.38;;;;;;;11.47;63.28;101996.13;7401306;19;20032;-68
2022/08/07 03:25:25;;;;;;;2.17;1.63;;;;;;;11.45;63.30;102008.38;7401299;19;20367;-69
2022/08/07 03:27:57;;;;;;;2.50;1.50;;;;;;;11.43;63.43;102003.13;7398206;19;20484;-69
2022/08/07 03:30:27;;;;;;;1.75;1.65;;;;;;;11.39;63.42;102004.03;7401827;19;20031;-69
2022/08/07 03:32:56;;;;;;;2.45;1.77;;;;;;;11.36;63.60;101996.16;7401212;19;20026;-69
2022/08/07 03:35:28;;;;;;;2.90;1.58;;;;;;;11.32;63.83;101997.06;7401261;19;20022;-69
2022/08/07 03:38:00;;;;;;;1.83;1.63;;;;;;;11.30;64.00;101998.81;7399735;19;20022;-69
2022/08/07 03:40:31;;;;;;;2.85;1.85;;;;;;;11.28;64.05;101997.97;7401469;19;20450;-69
2022/08/07 03:43:02;;;;;;;3.75;1.55;;;;;;;11.28;64.23;101996.19;7401011;19;20028;-69
2022/08/07 03:45:31;;;;;;;3.72;1.67;;;;;;;11.26;64.15;101992.72;7401332;19;20107;-69
2022/08/07 03:48:00;;;;;;;2.83;2.35;;;;;;;11.23;64.18;101998.88;7398994;19;20023;-68
2022/08/07 03:50:30;;;;;;;4.95;3.72;;;;;;;11.21;64.44;101995.34;7400845;19;20018;-69
2022/08/07 03:53:00;;;;;;;9.57;5.00;;;;;;;11.19;64.53;101994.47;7399561;19;20007;-68
2022/08/07 03:55:30;;;;;;;3.80;2.88;;;;;;;11.17;64.62;101996.25;7400500;19;20021;-69
2022/08/07 03:58:02;;;;;;;3.17;2.28;;;;;;;11.13;64.59;102001.53;7398365;19;20477;-69
2022/08/07 04:00:32;;;;;;;3.70;2.67;;;;;;;11.11;64.62;101998.00;7399752;19;20469;-69
2022/08/07 04:03:00;;;;;;;6.40;4.28;;;;;;;11.07;64.66;102002.44;7400135;19;20014;-69
2022/08/07 04:05:29;;;;;;;5.70;4.72;;;;;;;11.04;64.57;102000.66;7400008;19;20090;-68
2022/08/07 04:07:58;;;;;;;5.90;4.85;;;;;;;11.00;64.54;102001.56;7398354;19;20078;-68
2022/08/07 04:10:27;;;;;;;4.70;3.50;;;;;;;11.02;64.55;102002.44;7397003;19;20035;-69
2022/08/07 04:12:56;;;;;;;6.32;4.03;;;;;;;11.02;64.67;102005.06;7399413;19;20036;-69
2022/08/07 04:15:28;;;;;;;3.33;2.78;;;;;;;11.01;64.54;102003.31;7399566;19;20043;-69
2022/08/07 04:17:57;;;;;;;3.00;2.80;;;;;;;11.01;64.59;102007.72;7398176;19;20047;-69
2022/08/07 04:20:26;;;;;;;4.15;3.05;;;;;;;10.99;64.42;102006.81;7396789;19;20026;-69
2022/08/07 04:22:55;;;;;;;4.85;3.30;;;;;;;10.99;64.54;102009.44;7396611;19;20030;-69
2022/08/07 04:25:25;;;;;;;3.42;2.80;;;;;;;10.98;64.44;102008.59;7396581;19;20082;-69
2022/08/07 04:27:53;;;;;;;3.60;2.92;;;;;;;10.97;64.43;102005.94;7397536;19;20018;-69
2022/08/07 04:30:22;;;;;;;3.00;2.75;;;;;;;10.97;64.61;102008.56;7398948;19;20074;-69
2022/08/07 04:32:53;;;;;;;3.63;2.78;;;;;;;10.97;64.60;102005.94;7400046;19;20035;-69
2022/08/07 04:35:22;;;;;;;3.03;2.72;;;;;;;10.98;64.57;102002.44;7397037;19;20018;-69
2022/08/07 04:37:51;;;;;;;3.72;2.42;;;;;;;10.98;64.64;102007.69;7396565;19;20076;-70
2022/08/07 04:40:20;;;;;;;3.67;2.55;;;;;;;10.99;64.56;102012.06;7398230;19;20027;-69
2022/08/07 04:42:48;;;;;;;2.97;2.47;;;;;;;11.01;64.60;102007.72;7398142;19;20375;-70
2022/08/07 04:45:17;;;;;;;4.82;2.88;;;;;;;11.02;64.65;102009.44;7398131;19;20366;-69
2022/08/07 04:54:19;;;;;;;4.05;2.42;;;;;;;11.12;64.72;102020.78;7396507;19;20017;-70
2022/08/07 04:56:52;;;;;;;6.20;3.75;;;;;;;11.14;64.71;102017.28;7398162;19;20388;-69
2022/08/07 04:59:29;;;;;;;5.75;4.20;;;;;;;11.18;64.80;102013.75;7398107;19;20366;-70
2022/08/07 05:02:05;;;;;;;5.85;3.28;;;;;;;11.21;64.97;102016.38;7397588;19;20011;-69
2022/08/07 05:04:41;;;;;;;4.57;3.42;;;;;;;11.25;65.09;102017.25;7396255;19;20023;-69
2022/08/07 05:07:17;;;;;;;5.93;4.10;;;;;;;11.29;64.99;102016.34;7396927;19;20018;-70
2022/08/07 05:09:57;;;;;;;4.03;3.35;;;;;;;11.34;65.05;102022.44;7398769;19;20019;-70
2022/08/07 05:12:41;;;;;;;4.10;3.30;;;;;;;11.39;65.25;102022.44;7397614;19;20025;-68
2022/08/07 05:15:18;;;;;;;6.72;4.53;;;;;;;11.45;64.98;102021.50;7397856;19;20018;-69
2022/08/07 05:17:49;;;;;;;4.50;2.63;;;;;;;11.49;64.90;102021.50;7396939;19;20018;-70
2022/08/07 05:20:23;;;;;;;4.82;3.33;;;;;;;11.53;65.03;102017.97;7398106;19;20022;-69
2022/08/07 05:22:54;;;;;;;6.03;3.28;;;;;;;11.59;64.92;102024.97;7397647;19;20007;-70
2022/08/07 05:25:26;;;;;;;3.70;2.55;;;;;;;11.63;64.90;102028.47;7397220;19;20496;-70
2022/08/07 05:27:55;;;;;;;4.65;3.03;;;;;;;11.67;64.92;102024.91;7396241;19;20015;-70
2022/08/07 05:30:25;;;;;;;3.65;3.05;;;;;;;11.70;64.80;102024.88;7397209;19;20014;-70
2022/08/07 05:32:56;;;;;;;3.80;2.92;;;;;;;11.74;64.68;102031.91;7397005;19;20490;-70
2022/08/07 05:35:25;;;;;;;4.13;3.15;;;;;;;11.76;64.71;102019.59;7397349;19;20094;-70
2022/08/07 05:37:55;;;;;;;4.10;2.97;;;;;;;11.82;64.68;102030.06;7395569;19;20031;-70
2022/08/07 05:40:26;;;;;;;3.45;2.83;;;;;;;11.87;64.66;102033.53;7397678;19;20461;-70
2022/08/07 05:42:55;;;;;;;6.00;3.40;;;;;;;11.93;64.50;102037.91;7397420;19;20431;-69
2022/08/07 05:45:31;;;;;;;3.58;2.50;;;;;;;11.98;64.52;102036.16;7395014;19;20098;-70
2022/08/07 05:48:00;;;;;;;4.38;3.00;;;;;;;12.01;64.42;102038.75;7395541;19;20031;-70
2022/08/07 05:50:29;;;;;;;2.88;2.58;;;;;;;12.10;64.41;102037.81;7396669;19;20022;-71
2022/08/07 05:52:59;;;;;;;4.55;2.78;;;;;;;12.16;64.17;102040.41;7395315;19;20465;-70
2022/08/07 05:55:31;;;;;;;3.22;2.40;;;;;;;12.25;64.27;102044.72;7396750;19;20355;-69
2022/08/07 05:58:01;;;;;;;3.38;2.65;;;;;;;12.31;64.21;102044.66;7395241;19;20035;-70
2022/08/07 06:00:32;;;;;;;3.15;2.85;;;;;;;12.38;64.13;102042.84;7397136;19;20031;-68
2022/08/07 06:03:01;;;;;;;5.50;2.25;;;;;;;12.46;63.95;102045.41;7396471;19;20463;-68
2022/08/07 06:05:31;;;;;;;4.40;2.05;;;;;;;12.55;63.71;102054.09;7396465;19;20014;-68
2022/08/07 06:08:01;;;;;;;2.38;2.08;;;;;;;12.63;63.55;102050.53;7395428;19;20019;-71
2022/08/07 06:10:32;;;;;;;3.22;1.85;;;;;;;12.74;63.46;102046.03;7396124;19;20487;-68
2022/08/07 06:13:03;;;;;;;4.00;1.85;;;;;;;12.85;63.27;102046.81;7394486;19;20011;-68
2022/08/07 06:15:32;;;;;;;2.47;1.80;;;;;;;12.96;63.23;102038.78;7397483;19;20031;-68
2022/08/07 06:18:01;;;;;;;1.92;1.80;;;;;;;13.06;62.88;102042.19;7395521;19;20031;-69
2022/08/07 06:20:31;;;;;;;3.13;1.60;;;;;;;13.13;62.68;102038.59;7395456;19;20506;-68
2022/08/07 06:23:01;;;;;;;3.20;1.58;;;;;;;13.22;62.59;102042.88;7395509;19;20484;-68
2022/08/07 06:25:33;;;;;;;3.22;1.95;;;;;;;13.31;62.45;102045.41;7396300;19;20067;-68
2022/08/07 06:28:04;;;;;;;2.58;1.85;;;;;;;13.39;62.46;102045.34;7393707;19;20019;-69
2022/08/07 06:30:33;;;;;;;2.65;1.60;;;;;;;13.48;62.27;102039.97;7395654;19;20029;-69
2022/08/07 06:33:02;;;;;;;4.13;2.10;;;;;;;13.58;61.99;102047.75;7395930;19;20018;-69
2022/08/07 06:35:31;;;;;;;3.53;1.65;;;;;;;13.67;61.89;102042.31;7402550;19;20018;-69
2022/08/07 06:37:59;;;;;;;2.40;1.60;;;;;;;13.76;61.47;102042.22;7400522;19;20022;-69
2022/08/07 06:40:30;;;;;;;3.30;1.95;;;;;;;13.86;61.54;102048.22;7402277;19;20082;-70
2022/08/07 06:43:04;;;;;;;7.90;3.58;;;;;;;13.92;61.38;102047.25;7403053;19;20023;-69
2022/08/07 06:45:33;;;;;;;4.63;2.50;;;;;;;14.02;61.20;102048.88;7402130;19;20031;-69
2022/08/07 06:48:02;;;;;;;4.05;2.65;;;;;;;14.10;61.01;102049.63;7400453;19;20025;-69
2022/08/07 06:50:32;;;;;;;4.55;2.55;;;;;;;14.17;60.59;102048.63;7401627;19;20018;-69
2022/08/07 06:53:02;;;;;;;4.85;1.80;;;;;;;14.26;60.42;102052.00;7401948;19;20392;-68
2022/08/07 06:55:33;;;;;;;7.40;3.50;;;;;;;14.34;60.32;102048.34;7402054;19;20014;-69
2022/08/07 06:58:06;;;;;;;5.18;2.00;;;;;;;14.41;59.79;102049.13;7399411;19;20035;-69
2022/08/07 07:00:38;;;;;;;5.55;1.73;;;;;;;14.49;59.66;102043.69;7401645;19;20581;-69
2022/08/07 07:03:08;;;;;;;2.85;1.17;;;;;;;14.57;59.52;102051.47;7399321;19;20026;-69
2022/08/07 07:05:37;;;;;;;5.80;2.42;;;;;;;14.64;59.37;102047.84;7401599;19;20029;-69
2022/08/07 07:08:07;;;;;;;3.40;1.73;;;;;;;14.72;59.24;102051.25;7399476;19;20019;-70
2022/08/07 07:10:39;;;;;;;2.35;1.38;;;;;;;14.80;58.99;102041.41;7401282;19;20019;-69
2022/08/07 07:13:16;;;;;;;2.63;1.70;;;;;;;14.89;58.90;102037.72;7401020;19;20495;-70
2022/08/07 07:15:56;;;;;;;3.40;1.48;;;;;;;14.95;58.38;102037.59;7398977;19;20347;-70
2022/08/07 07:18:30;;;;;;;3.70;1.50;;;;;;;15.04;58.66;102036.56;7398653;19;20022;-69
2022/08/07 07:21:04;;;;;;;2.65;1.63;;;;;;;15.14;58.14;102037.25;7398918;19;20023;-69
2022/08/07 07:23:39;;;;;;;3.80;1.50;;;;;;;15.22;57.97;102040.59;7401952;19;20428;-70
2022/08/07 07:26:11;;;;;;;2.50;1.23;;;;;;;15.31;57.60;102039.53;7398242;19;20011;-70
2022/08/07 07:28:48;;;;;;;6.45;1.95;;;;;;;15.41;57.39;102041.06;7398102;19;20509;-69
2022/08/07 07:31:21;;;;;;;4.85;1.30;;;;;;;15.51;57.31;102035.59;7398736;19;20509;-69
2022/08/07 07:33:53;;;;;;;2.42;1.38;;;;;;;15.60;56.91;102030.97;7401182;19;20021;-68
2022/08/07 07:36:24;;;;;;;1.27;1.17;;;;;;;15.70;56.62;102036.94;7400458;19;20041;-68
2022/08/07 07:38:53;;;;;;;2.97;1.15;;;;;;;15.80;56.28;102027.88;7397734;19;20091;-68
2022/08/07 07:41:24;;;;;;;2.88;1.42;;;;;;;15.90;56.32;102031.22;7397118;19;20019;-68
2022/08/07 07:43:57;;;;;;;2.90;1.58;;;;;;;16.02;55.67;102026.53;7400356;19;20015;-68
2022/08/07 07:46:26;;;;;;;2.33;1.52;;;;;;;16.14;55.19;102023.59;7400125;19;20079;-68
2022/08/07 07:48:56;;;;;;;4.00;1.90;;;;;;;16.25;54.64;102024.19;7397668;19;20039;-69
2022/08/07 07:51:28;;;;;;;3.50;1.58;;;;;;;16.36;54.49;102021.25;7400438;19;20018;-69
2022/08/07 07:53:59;;;;;;;2.45;1.75;;;;;;;16.48;53.99;102013.91;7398725;19;20010;-70
2022/08/07 07:56:32;;;;;;;3.05;2.08;;;;;;;16.56;53.95;102012.78;7397886;19;20035;-69
2022/08/07 07:59:04;;;;;;;4.68;2.10;;;;;;;16.68;53.34;102011.59;7400488;19;20377;-69
2022/08/07 08:01:34;;;;;;;4.28;2.08;;;;;;;16.78;53.02;102007.78;7400115;19;20089;-69
2022/08/07 08:04:06;;;;;;;3.65;1.15;;;;;;;16.90;52.62;102011.00;7400182;19;20021;-69
2022/08/07 08:06:38;;;;;;;5.60;1.77;;;;;;;17.00;51.90;102001.06;7398913;19;20091;-69
2022/08/07 08:09:09;;;;;;;3.65;1.77;;;;;;;17.13;51.37;102009.50;7398831;19;20014;-69
2022/08/07 08:11:41;;;;;;;5.20;1.42;;;;;;;17.22;51.28;101995.97;7399895;19;20022;-69
2022/08/07 08:14:12;;;;;;;3.90;1.70;;;;;;;17.33;50.82;101993.88;7396729;19;20509;-69
2022/08/07 08:16:46;;;;;;;3.30;1.58;;;;;;;17.46;50.58;101998.81;7398850;19;20035;-69
2022/08/07 08:19:18;;;;;;;2.72;1.30;;;;;;;17.58;49.99;101999.28;7397268;19;20019;-69
2022/08/07 08:27:16;;;;;;;1.15;1.00;;;;;;;17.97;49.20;101995.44;7397860;19;20027;-69
2022/08/07 08:29:51;;;;;;;4.57;1.13;;;;;;;18.06;48.15;102003.09;7396667;19;20018;-69
2022/08/07 08:32:23;;;;;;;2.70;1.08;;;;;;;18.18;48.28;101996.50;7399067;19;20019;-69
2022/08/07 08:34:54;;;;;;;1.48;0.90;;;;;;;18.29;47.74;101995.28;7396579;19;20015;-69
2022/08/07 08:37:23;;;;;;;5.50;1.08;;;;;;;18.37;47.03;101996.75;7396124;19;20035;-69
2022/08/07 08:39:55;;;;;;;1.90;1.00;;;;;;;18.47;46.90;101989.31;7395727;19;20078;-69
2022/08/07 08:42:28;;;;;;;3.92;1.20;;;;;;;18.55;46.16;101981.06;7395584;19;20014;-69
2022/08/07 08:45:07;;;;;;;2.83;1.10;;;;;;;18.61;45.91;101982.66;7397592;19;20488;-68
2022/08/07 08:47:44;;;;;;;2.90;0.85;;;;;;;18.70;45.73;101984.97;7396958;19;20019;-69
2022/08/07 08:50:22;;;;;;;1.38;0.90;;;;;;;18.81;46.16;101985.44;7396255;19;20431;-69
2022/08/07 08:52:55;;;;;;;3.05;0.75;;;;;;;18.89;45.36;101983.38;7398265;19;20030;-69
2022/08/07 08:55:30;;;;;;;2.53;0.90;;;;;;;18.97;44.67;101975.16;7394420;19;20023;-69
2022/08/07 08:58:07;;;;;;;1.75;0.85;;;;;;;19.09;44.40;101979.13;7396960;19;20035;-68
2022/08/07 09:00:46;;;;;;;2.85;0.93;;;;;;;19.20;42.43;101968.09;7398176;19;20023;-69
2022/08/07 09:03:25;;;;;;;3.60;1.13;;;;;;;19.31;42.28;101970.31;7397605;19;20476;-69
2022/08/07 09:05:58;;;;;;;13.60;3.47;;;;;;;19.39;43.64;101972.72;7398416;19;20018;-69
2022/08/07 09:08:36;;;;;;;9.10;2.25;;;;;;;19.51;43.68;101980.19;7395983;19;20035;-69
2022/08/07 09:11:17;;;;;;;4.32;1.50;;;;;;;19.60;42.81;101973.63;7395893;19;20011;-67
2022/08/07 09:13:59;;;;;;;3.58;1.08;;;;;;;19.68;42.66;101975.06;7397447;19;20425;-69
2022/08/07 09:16:43;;;;;;;5.07;1.42;;;;;;;19.75;42.42;101967.69;7396763;19;20014;-69
2022/08/07 09:19:22;;;;;;;3.92;0.82;;;;;;;19.83;41.65;101964.75;7398331;19;20010;-67
2022/08/07 09:22:06;;;;;;;3.20;0.70;;;;;;;19.90;40.95;101963.53;7396484;19;20495;-68
2022/08/07 09:24:46;;;;;;;2.53;1.05;;;;;;;20.00;38.96;101966.69;7395539;19;20021;-69
2022/08/07 09:27:26;;;;;;;3.38;2.17;;;;;;;20.08;38.69;101966.38;7396460;19;20019;-68
2022/08/07 09:29:59;;;;;;;2.50;1.05;;;;;;;20.12;38.84;101957.31;7394763;19;20019;-69
2022/08/07 09:32:45;;;;;;;1.60;0.70;;;;;;;20.17;38.85;101961.53;7396807;19;20022;-69
2022/08/07 09:35:25;;;;;;;1.95;0.60;;;;;;;20.23;37.39;101952.38;7396304;19;20122;-69
2022/08/07 09:38:06;;;;;;;1.92;0.70;;;;;;;20.28;39.09;101945.06;7395477;19;20074;-69
2022/08/07 09:40:43;;;;;;;1.00;0.70;;;;;;;20.34;37.64;101939.44;7396385;19;20018;-70
2022/08/07 09:43:27;;;;;;;2.05;0.80;;;;;;;20.44;38.06;101947.91;7394512;19;20015;-69
2022/08/07 09:45:59;;;;;;;;;;;;;;;20.50;38.43;101942.31;7397359;19;20103;-69
2022/08/07 09:48:38;;;;;;;8.70;5.72;;;;;;;20.58;36.36;101935.78;7394408;19;19936;-69
2022/08/07 09:51:17;;;;;;;7.93;2.58;;;;;;;20.69;35.78;101936.16;7394586;19;20027;-69
2022/08/07 09:53:49;;;;;;;3.45;2.25;;;;;;;20.78;37.48;101941.09;7395972;19;20094;-70
2022/08/07 09:56:36;;;;;;;2.67;1.70;;;;;;;20.85;36.46;101931.00;7396007;19;20498;-69
2022/08/07 09:59:22;;;;;;;3.75;1.10;;;;;;;20.96;35.53;101930.50;7395878;19;20019;-70
2022/08/07 10:02:10;;;;;;;1.05;0.50;;;;;;;21.03;35.67;101931.97;7396828;19;20433;-70
2022/08/07 10:05:03;;;;;;;1.58;0.40;;;;;;;21.12;34.80;101923.50;7396737;19;20077;-70
2022/08/07 10:07:45;;;;;;;0.75;0.45;;;;;;;21.20;34.68;101920.47;7392700;19;20018;-69
2022/08/07 10:10:29;;;;;;;1.98;1.20;;;;;;;21.26;33.91;101912.19;7394714;19;20527;-69
2022/08/07 10:13:27;;;;;;;1.40;0.65;;;;;;;21.33;33.61;101918.06;7395765;19;20503;-69
2022/08/07 10:16:06;;;;;;;1.50;0.50;;;;;;;21.40;33.23;101910.66;7395370;19;20027;-69
2022/08/07 10:18:53;;;;;;;2.17;1.27;;;;;;;21.45;33.05;101900.63;7393952;19;20023;-69
2022/08/07 10:21:40;;;;;;;1.20;0.50;;;;;;;21.51;31.94;101897.63;7395993;19;20091;-69
2022/08/07 10:24:49;;;;;;;2.15;1.20;;;;;;;21.58;31.28;101898.22;7395544;19;20037;-69
2022/08/07 10:27:38;;;;;;;1.73;1.00;;;;;;;21.68;31.53;101891.47;7394911;19;20031;-69
2022/08/07 10:30:09;;;;;;;3.20;1.77;;;;;;;21.75;32.72;101890.22;7394121;19;20022;-69
2022/08/07 10:33:07;;;;;;;1.92;0.60;;;;;;;21.81;32.50;101883.69;7394314;19;20541;-68
2022/08/07 10:35:48;;;;;;;0.43;0.35;;;;;;;21.88;32.47;101884.25;7393784;19;20015;-69
2022/08/07 10:38:36;;;;;;;1.40;0.38;;;;;;;21.92;32.46;101876.00;7393897;19;20074;-69
2022/08/07 10:41:13;;;;;;;2.35;0.75;;;;;;;22.00;32.17;101870.25;7394093;19;20010;-68
2022/08/07 10:43:49;;;;;;;0.95;0.30;;;;;;;22.07;31.79;101873.47;7394763;19;20035;-69
2022/08/07 10:46:23;;;;;;;1.00;0.68;;;;;;;22.13;32.12;101868.66;7394546;19;20551;-69
2022/08/07 10:49:04;;;;;;;2.85;1.35;;;;;;;22.24;32.40;101860.09;7392249;19;20513;-70
2022/08/07 10:51:42;;;;;;;1.30;0.70;;;;;;;22.35;32.84;101861.31;7393006;19;20409;-70
2022/08/07 10:54:20;;;;;;;1.40;0.50;;;;;;;22.49;32.59;101850.75;7393609;19;20023;-70
2022/08/07 10:57:08;;;;;;;3.58;0.90;;;;;;;22.64;32.60;101854.41;7394383;19;20023;-70
2022/08/07 10:59:49;;;;;;;0.85;0.50;;;;;;;22.76;32.32;101843.03;7392283;19;20035;-68
2022/08/07 11:02:24;;;;;;;1.65;0.35;;;;;;;22.86;32.16;101848.75;7394566;19;20078;-69
2022/08/07 11:05:07;;;;;;;1.08;0.40;;;;;;;22.95;31.66;101839.31;7392770;19;20041;-69
2022/08/07 11:07:42;;;;;;;0.50;0.30;;;;;;;23.03;31.37;101838.88;7392894;19;20485;-68
2022/08/07 11:10:19;;;;;;;0.90;0.30;;;;;;;23.15;30.02;101843.56;7392876;19;20041;-69
2022/08/07 11:12:58;;;;;;;2.20;0.40;;;;;;;23.25;30.08;101836.72;7394206;19;20019;-68
2022/08/07 11:21:48;;;;;;;0.90;0.30;;;;;;;23.56;29.28;101818.84;7396939;19;20013;-72
2022/08/07 11:24:23;;;;;;;3.72;2.35;;;;;;;23.67;29.27;101817.31;7398391;19;20010;-70
2022/08/07 11:27:03;;;;;;;1.88;0.50;;;;;;;23.71;29.31;101824.25;7398596;19;20015;-71
2022/08/07 11:29:39;;;;;;;2.50;0.75;;;;;;;23.77;28.87;101807.81;7398227;19;20028;-71
2022/08/07 11:32:13;;;;;;;2.40;0.30;;;;;;;23.83;28.94;101811.91;7400727;19;20025;-72
2022/08/07 11:34:49;;;;;;;1.58;0.50;;;;;;;23.88;28.72;101807.13;7398181;19;20014;-71
2022/08/07 11:37:30;;;;;;;2.70;0.50;;;;;;;23.95;28.62;101813.00;7398022;19;20019;-71
2022/08/07 11:40:12;;;;;;;4.47;0.80;;;;;;;24.06;29.40;101810.50;7398283;19;20022;-72
2022/08/07 11:42:55;;;;;;;1.85;0.68;;;;;;;24.20;29.22;101801.59;7401925;19;20026;-72
2022/08/07 11:45:36;;;;;;;5.53;1.00;;;;;;;24.29;29.02;101798.38;7398389;19;20019;-71
2022/08/07 11:48:28;;;;;;;1.45;0.60;;;;;;;24.39;29.05;101803.97;7396811;19;20018;-72
2022/08/07 11:51:08;;;;;;;0.88;0.40;;;;;;;24.39;29.08;101801.31;7397037;19;20526;-72
2022/08/07 11:53:59;;;;;;;3.35;0.52;;;;;;;24.38;28.90;101802.28;7396979;19;20499;-72
2022/08/07 11:56:39;;;;;;;2.88;0.68;;;;;;;24.39;29.24;101795.94;7399271;19;20014;-71
2022/08/07 11:59:27;;;;;;;2.10;0.73;;;;;;;24.46;28.87;101788.38;7397117;19;20485;-72
2022/08/07 12:02:09;;;;;;;0.95;0.50;;;;;;;24.52;28.97;101783.47;7397456;19;20031;-72
2022/08/07 12:05:08;;;;;;;0.80;0.50;;;;;;;24.58;29.16;101782.22;7396999;19;20031;-72
2022/08/07 12:07:42;;;;;;;2.38;0.52;;;;;;;24.65;29.60;101785.41;7399225;19;20035;-71
2022/08/07 12:10:19;;;;;;;3.08;0.60;;;;;;;24.74;28.85;101783.94;7397428;19;20032;-71